Terminal Aerodrome Forecast
Issued by NWS Twin Cities, MN

Home | Current Version | Previous Version | Text Only | Print | Product List | Glossary Off
Versions: 1 2 3 4 5 6 7 8 9 10 11 12 13 14 15 16 17 18 19 20 21 22 23 24 25

330
FTUS43 KMPX 201504 AAA
TAFMSP
TAF AMD
KMSP 201504Z 2015/2118 07012G20KT 2SM RA OVC035
     FM201700 07014G21KT 2SM -RA BR OVC008
     FM210200 03008KT 2SM -DZ BR OVC005
     FM210800 25004KT 4SM BR VCSH BKN007 OVC012
     FM211400 28007KT P6SM SCT007 OVC015=

USA.gov is the U.S. government's official web portal to all federal, state and local government web resources and services.